Time;durP1;ratioP1;P1;durP2;ratioP2;P2;SDS_P1;SDS_P2;PMS_P1;PMS_P2;Temp;Humidity;BMP_temperature;BMP_pressure;BME280_temperature;BME280_humidity;BME280_pressure;Samples;Min_cycle;Max_cycle;Signal;HPM_P1;HPM_P2
2023/03/14 00:01:09;;;;;;;0.73;0.60;;;;;;;;;;5032117;28;20495;-64
2023/03/14 00:03:35;;;;;;;0.63;0.40;;;;;;;;;;5032033;28;20446;-64
2023/03/14 00:06:04;;;;;;;1.90;0.70;;;;;;;;;;5032134;28;20411;-64
2023/03/14 00:08:31;;;;;;;0.50;0.50;;;;;;;;;;5032202;28;20455;-64
2023/03/14 00:10:59;;;;;;;0.97;0.50;;;;;;;;;;5032063;28;20462;-65
2023/03/14 00:13:25;;;;;;;0.57;0.57;;;;;;;;;;5032083;28;20457;-64
2023/03/14 00:15:51;;;;;;;0.90;0.73;;;;;;;;;;5032247;28;20474;-63
2023/03/14 00:18:19;;;;;;;0.73;0.40;;;;;;;;;;5033324;28;20820;-64
2023/03/14 00:20:45;;;;;;;1.07;0.50;;;;;;;;;;5035789;28;20462;-64
2023/03/14 00:23:11;;;;;;;0.70;0.53;;;;;;;;;;5035793;28;20910;-63
2023/03/14 00:25:37;;;;;;;0.40;0.40;;;;;;;;;;5035645;28;20511;-64
2023/03/14 00:28:03;;;;;;;0.40;0.40;;;;;;;;;;5017766;28;20422;-64
2023/03/14 00:30:29;;;;;;;0.50;0.50;;;;;;;;;;5035459;28;20903;-64
2023/03/14 00:32:55;;;;;;;0.60;0.60;;;;;;;;;;5017722;28;20524;-64
2023/03/14 00:35:21;;;;;;;0.50;0.50;;;;;;;;;;5035271;28;20438;-64
2023/03/14 00:37:47;;;;;;;0.50;0.50;;;;;;;;;;5035111;28;20404;-64
2023/03/14 00:40:13;;;;;;;1.47;0.80;;;;;;;;;;5035345;28;20431;-64
2023/03/14 00:42:39;;;;;;;1.43;0.60;;;;;;;;;;5035104;28;20408;-64
2023/03/14 00:45:07;;;;;;;0.60;0.60;;;;;;;;;;5035266;28;20533;-64
2023/03/14 00:47:33;;;;;;;0.67;0.67;;;;;;;;;;5035187;28;20416;-64
2023/03/14 00:49:59;;;;;;;0.50;0.50;;;;;;;;;;5035265;28;20821;-63
2023/03/14 00:52:25;;;;;;;2.70;0.60;;;;;;;;;;5035196;28;20501;-64
2023/03/14 00:54:51;;;;;;;0.60;0.60;;;;;;;;;;5035165;28;20404;-64
2023/03/14 00:57:17;;;;;;;0.50;0.50;;;;;;;;;;5034775;28;20431;-64
2023/03/14 00:59:43;;;;;;;0.87;0.50;;;;;;;;;;5035101;28;20490;-63
2023/03/14 01:02:09;;;;;;;0.87;0.70;;;;;;;;;;5035170;28;20431;-64
2023/03/14 01:04:36;;;;;;;0.70;0.70;;;;;;;;;;5034885;28;20914;-64
2023/03/14 01:07:02;;;;;;;1.20;0.70;;;;;;;;;;5034741;28;20805;-65
2023/03/14 01:09:28;;;;;;;0.70;0.63;;;;;;;;;;5034649;28;20546;-63
2023/03/14 01:11:54;;;;;;;1.13;0.63;;;;;;;;;;5034547;28;20403;-63
2023/03/14 01:14:22;;;;;;;1.53;0.73;;;;;;;;;;5034603;28;20474;-64
2023/03/14 01:16:48;;;;;;;2.00;0.80;;;;;;;;;;5034635;28;20430;-64
2023/03/14 01:19:14;;;;;;;0.70;0.50;;;;;;;;;;5034566;28;20891;-63
2023/03/14 01:21:40;;;;;;;1.00;0.60;;;;;;;;;;5034566;28;20408;-63
2023/03/14 01:24:07;;;;;;;1.17;0.60;;;;;;;;;;5034441;28;20455;-64
2023/03/14 01:26:34;;;;;;;0.63;0.63;;;;;;;;;;5034589;28;20499;-64
2023/03/14 01:29:00;;;;;;;1.23;0.77;;;;;;;;;;5016333;28;20466;-64
2023/03/14 01:31:27;;;;;;;1.97;1.03;;;;;;;;;;5034394;28;20778;-64
2023/03/14 01:33:53;;;;;;;0.80;0.80;;;;;;;;;;5034378;28;20412;-64
2023/03/14 01:36:21;;;;;;;1.20;0.97;;;;;;;;;;5034171;28;20435;-64
2023/03/14 01:38:47;;;;;;;1.87;0.90;;;;;;;;;;5034330;28;20862;-63
2023/03/14 01:41:17;;;;;;;0.97;0.93;;;;;;;;;;5034096;28;20523;-64
2023/03/14 01:43:45;;;;;;;0.83;0.83;;;;;;;;;;5033805;28;20435;-63
2023/03/14 01:46:23;;;;;;;1.13;0.80;;;;;;;;;;5033798;28;20970;-64
2023/03/14 01:48:51;;;;;;;0.80;0.80;;;;;;;;;;5034031;28;20424;-64
2023/03/14 01:51:25;;;;;;;3.03;1.20;;;;;;;;;;5034018;28;20412;-64
2023/03/14 01:53:52;;;;;;;0.60;0.60;;;;;;;;;;5033755;28;20415;-63
2023/03/14 01:56:19;;;;;;;4.23;0.80;;;;;;;;;;5033997;28;20447;-64
2023/03/14 01:58:47;;;;;;;2.17;1.00;;;;;;;;;;5033806;28;20923;-65
2023/03/14 02:01:15;;;;;;;1.67;1.07;;;;;;;;;;5033866;28;20503;-64
2023/03/14 02:03:47;;;;;;;1.77;1.03;;;;;;;;;;5033696;28;20462;-64
2023/03/14 02:06:15;;;;;;;1.70;0.97;;;;;;;;;;5033630;28;20450;-65
2023/03/14 02:08:47;;;;;;;2.03;0.90;;;;;;;;;;5033574;28;20412;-64
2023/03/14 02:11:15;;;;;;;1.73;0.80;;;;;;;;;;5033557;28;20455;-65
2023/03/14 02:13:41;;;;;;;0.80;0.80;;;;;;;;;;5033535;28;20416;-65
2023/03/14 02:16:07;;;;;;;3.40;0.60;;;;;;;;;;5033336;28;20941;-64
2023/03/14 02:18:36;;;;;;;4.30;0.90;;;;;;;;;;5015611;28;20781;-65
2023/03/14 02:21:06;;;;;;;2.77;0.90;;;;;;;;;;5033335;28;20800;-65
2023/03/14 02:23:38;;;;;;;0.77;0.73;;;;;;;;;;5033540;28;20470;-64
2023/03/14 02:26:09;;;;;;;2.00;0.70;;;;;;;;;;5033238;28;20782;-64
2023/03/14 02:28:35;;;;;;;1.07;1.00;;;;;;;;;;5033105;28;20438;-64
2023/03/14 02:31:01;;;;;;;0.70;0.70;;;;;;;;;;5033151;28;20471;-65
2023/03/14 02:33:27;;;;;;;1.50;0.97;;;;;;;;;;5033416;28;20414;-64
2023/03/14 02:35:53;;;;;;;1.23;0.70;;;;;;;;;;5033364;28;20462;-64
2023/03/14 02:38:19;;;;;;;3.57;0.90;;;;;;;;;;5033406;28;20428;-64
2023/03/14 02:40:45;;;;;;;0.50;0.50;;;;;;;;;;5032696;28;20488;-64
2023/03/14 02:43:11;;;;;;;0.70;0.70;;;;;;;;;;5033089;28;20855;-64
2023/03/14 02:45:39;;;;;;;0.90;0.90;;;;;;;;;;5033105;28;20428;-64
2023/03/14 02:48:11;;;;;;;0.97;0.80;;;;;;;;;;5032905;28;20977;-63
2023/03/14 02:50:38;;;;;;;1.93;0.70;;;;;;;;;;5033115;28;20501;-64
2023/03/14 02:53:04;;;;;;;2.47;0.93;;;;;;;;;;5032885;28;20415;-65
2023/03/14 02:55:30;;;;;;;0.83;0.80;;;;;;;;;;5032971;28;20920;-65
2023/03/14 02:57:56;;;;;;;0.90;0.60;;;;;;;;;;5032844;28;20415;-63
2023/03/14 03:00:22;;;;;;;1.40;0.70;;;;;;;;;;5032637;28;20435;-64
2023/03/14 03:02:48;;;;;;;1.07;0.70;;;;;;;;;;5032912;28;20424;-64
2023/03/14 03:05:13;;;;;;;1.00;0.70;;;;;;;;;;5032667;28;21082;-65
2023/03/14 03:07:39;;;;;;;2.57;1.00;;;;;;;;;;5032633;28;20415;-65
2023/03/14 03:10:06;;;;;;;1.37;0.67;;;;;;;;;;5032449;28;21072;-64
2023/03/14 03:12:32;;;;;;;0.83;0.80;;;;;;;;;;5032652;28;20427;-64
2023/03/14 03:14:58;;;;;;;3.33;0.70;;;;;;;;;;5032666;28;20392;-65
2023/03/14 03:17:24;;;;;;;0.60;0.60;;;;;;;;;;5032532;28;20412;-65
2023/03/14 03:19:49;;;;;;;2.33;1.00;;;;;;;;;;5032521;28;20416;-64
2023/03/14 03:22:15;;;;;;;1.73;0.80;;;;;;;;;;5032224;28;20898;-65
2023/03/14 03:24:41;;;;;;;1.13;0.90;;;;;;;;;;5032467;28;20408;-64
2023/03/14 03:27:10;;;;;;;0.90;0.90;;;;;;;;;;5032205;28;20907;-64
2023/03/14 03:29:36;;;;;;;3.23;1.00;;;;;;;;;;5032309;28;20836;-64
2023/03/14 03:32:02;;;;;;;2.27;1.00;;;;;;;;;;5032703;28;20423;-64
2023/03/14 03:34:28;;;;;;;2.37;0.73;;;;;;;;;;5032150;28;20525;-64
2023/03/14 03:36:56;;;;;;;2.30;0.90;;;;;;;;;;5032565;28;20962;-64
2023/03/14 03:39:22;;;;;;;6.60;1.50;;;;;;;;;;5043297;28;20459;-65
2023/03/14 03:41:48;;;;;;;4.20;0.80;;;;;;;;;;5052076;28;20419;-64
2023/03/14 03:44:14;;;;;;;2.90;1.03;;;;;;;;;;5052037;28;20921;-65
2023/03/14 03:46:40;;;;;;;5.30;1.10;;;;;;;;;;5052219;28;20775;-64
2023/03/14 03:49:06;;;;;;;2.63;0.83;;;;;;;;;;5052121;28;20512;-65
2023/03/14 03:51:32;;;;;;;2.70;1.07;;;;;;;;;;5052099;28;20406;-64
2023/03/14 03:53:58;;;;;;;1.13;1.00;;;;;;;;;;5056186;28;20794;-64
2023/03/14 03:56:26;;;;;;;1.90;0.70;;;;;;;;;;5056115;28;20422;-63
2023/03/14 03:58:52;;;;;;;3.60;1.40;;;;;;;;;;5056092;28;20438;-65
2023/03/14 04:01:18;;;;;;;1.83;1.17;;;;;;;;;;5055878;28;20478;-65
2023/03/14 04:03:44;;;;;;;2.30;0.90;;;;;;;;;;5055913;28;20414;-65
2023/03/14 04:06:13;;;;;;;2.67;1.27;;;;;;;;;;5037883;28;20898;-65
2023/03/14 04:08:40;;;;;;;5.97;1.67;;;;;;;;;;5055781;28;20407;-62
2023/03/14 04:11:08;;;;;;;2.40;1.37;;;;;;;;;;5055976;28;20395;-65
2023/03/14 04:13:37;;;;;;;2.70;0.50;;;;;;;;;;5055442;28;20419;-64
2023/03/14 04:16:03;;;;;;;2.10;1.20;;;;;;;;;;5055781;28;20387;-65
2023/03/14 04:18:30;;;;;;;3.53;1.10;;;;;;;;;;5055437;28;20506;-65
2023/03/14 04:20:56;;;;;;;0.70;0.70;;;;;;;;;;5055533;28;20406;-65
2023/03/14 04:23:26;;;;;;;3.90;1.10;;;;;;;;;;5055523;28;20910;-66
2023/03/14 04:25:53;;;;;;;5.00;1.10;;;;;;;;;;5055641;28;20410;-65
2023/03/14 04:28:19;;;;;;;0.80;0.77;;;;;;;;;;5055546;28;20429;-65
2023/03/14 04:30:48;;;;;;;0.50;0.50;;;;;;;;;;5055551;28;20455;-65
2023/03/14 04:33:16;;;;;;;0.60;0.60;;;;;;;;;;5055448;28;20552;-65
2023/03/14 04:35:43;;;;;;;1.10;0.67;;;;;;;;;;5055906;28;20421;-64
2023/03/14 04:38:08;;;;;;;1.30;0.80;;;;;;;;;;5055372;28;20454;-63
2023/03/14 04:40:37;;;;;;;0.80;0.73;;;;;;;;;;5037378;28;20619;-65
2023/03/14 04:43:03;;;;;;;1.57;0.90;;;;;;;;;;5037668;28;20903;-65
2023/03/14 04:45:31;;;;;;;0.97;0.70;;;;;;;;;;5055263;28;20435;-65
2023/03/14 04:47:59;;;;;;;0.87;0.50;;;;;;;;;;5055095;28;20446;-64
2023/03/14 04:50:25;;;;;;;0.60;0.60;;;;;;;;;;5054986;28;20458;-63
2023/03/14 04:52:51;;;;;;;0.80;0.60;;;;;;;;;;5055316;28;20391;-65
2023/03/14 04:55:17;;;;;;;0.53;0.50;;;;;;;;;;5055158;28;20418;-64
2023/03/14 04:57:43;;;;;;;0.67;0.50;;;;;;;;;;5055023;28;20409;-65
2023/03/14 05:00:09;;;;;;;1.13;0.60;;;;;;;;;;5054767;28;20423;-65
2023/03/14 05:02:35;;;;;;;1.83;0.80;;;;;;;;;;5054698;28;20434;-64
2023/03/14 05:05:01;;;;;;;4.43;0.77;;;;;;;;;;5053774;28;20411;-65
2023/03/14 05:07:27;;;;;;;0.90;0.60;;;;;;;;;;5054768;28;20430;-64
2023/03/14 05:09:53;;;;;;;0.70;0.47;;;;;;;;;;5054703;28;20507;-65
2023/03/14 05:12:20;;;;;;;0.73;0.70;;;;;;;;;;5036967;28;20414;-64
2023/03/14 05:14:45;;;;;;;2.60;0.60;;;;;;;;;;5054723;28;20395;-65
2023/03/14 05:17:14;;;;;;;2.63;0.70;;;;;;;;;;5037059;28;20433;-65
2023/03/14 05:19:40;;;;;;;1.67;1.50;;;;;;;;;;5054725;28;20439;-65
2023/03/14 05:22:06;;;;;;;0.40;0.40;;;;;;;;;;5054706;28;20399;-63
2023/03/14 05:24:32;;;;;;;0.50;0.50;;;;;;;;;;5054243;28;20446;-65
2023/03/14 05:26:58;;;;;;;0.97;0.97;;;;;;;;;;5054657;28;20419;-65
2023/03/14 05:29:24;;;;;;;0.53;0.53;;;;;;;;;;5054391;28;20981;-65
2023/03/14 05:31:50;;;;;;;0.70;0.70;;;;;;;;;;5054200;28;20394;-64
2023/03/14 05:34:16;;;;;;;1.23;0.50;;;;;;;;;;5054612;28;20403;-64
2023/03/14 05:36:42;;;;;;;0.57;0.50;;;;;;;;;;5054339;28;20481;-64
2023/03/14 05:39:10;;;;;;;0.57;0.40;;;;;;;;;;5054155;28;20637;-63
2023/03/14 05:41:36;;;;;;;0.70;0.70;;;;;;;;;;5054179;28;20792;-64
2023/03/14 05:44:02;;;;;;;2.17;0.53;;;;;;;;;;5053551;28;20442;-65
2023/03/14 05:46:30;;;;;;;2.13;0.90;;;;;;;;;;5054018;28;20445;-65
2023/03/14 05:48:58;;;;;;;1.50;0.57;;;;;;;;;;5054041;28;20414;-65
2023/03/14 05:51:24;;;;;;;0.97;0.60;;;;;;;;;;5054038;28;20419;-64
2023/03/14 05:53:50;;;;;;;1.40;0.50;;;;;;;;;;5053842;28;20528;-65
2023/03/14 05:56:16;;;;;;;0.90;0.50;;;;;;;;;;5053909;28;20921;-64
2023/03/14 05:58:43;;;;;;;0.50;0.50;;;;;;;;;;5053643;28;20437;-64
2023/03/14 06:01:09;;;;;;;0.60;0.60;;;;;;;;;;5053455;28;20870;-64
2023/03/14 06:03:35;;;;;;;0.80;0.50;;;;;;;;;;5053378;28;20435;-64
2023/03/14 06:06:07;;;;;;;0.50;0.50;;;;;;;;;;5053381;28;20909;-65
2023/03/14 06:08:35;;;;;;;0.90;0.90;;;;;;;;;;5053486;28;20439;-65
2023/03/14 06:11:23;;;;;;;0.50;0.50;;;;;;;;;;5053151;28;20466;-65
2023/03/14 06:13:49;;;;;;;1.83;0.57;;;;;;;;;;5042740;28;20470;-65
2023/03/14 06:16:15;;;;;;;0.63;0.60;;;;;;;;;;5052302;28;20918;-65
2023/03/14 06:18:41;;;;;;;1.27;0.50;;;;;;;;;;5035445;28;20419;-65
2023/03/14 06:21:08;;;;;;;0.90;0.50;;;;;;;;;;5052709;28;20449;-64
2023/03/14 06:23:34;;;;;;;0.90;0.70;;;;;;;;;;5053243;28;20403;-65
2023/03/14 06:26:02;;;;;;;0.43;0.40;;;;;;;;;;5035253;28;20453;-65
2023/03/14 06:28:33;;;;;;;2.93;0.60;;;;;;;;;;5053297;28;20761;-65
2023/03/14 06:31:01;;;;;;;0.40;0.40;;;;;;;;;;5052923;28;20481;-64
2023/03/14 06:33:27;;;;;;;1.50;0.80;;;;;;;;;;5052992;28;20510;-64
2023/03/14 06:35:53;;;;;;;2.50;0.50;;;;;;;;;;5035067;28;20454;-65
2023/03/14 06:38:19;;;;;;;1.40;0.70;;;;;;;;;;5052838;28;20480;-65
2023/03/14 06:40:45;;;;;;;2.00;0.60;;;;;;;;;;5052756;28;20435;-65
2023/03/14 06:43:11;;;;;;;2.20;0.40;;;;;;;;;;5052565;28;20548;-65
2023/03/14 06:45:37;;;;;;;1.53;0.60;;;;;;;;;;5052812;28;20890;-65
2023/03/14 06:48:03;;;;;;;0.90;0.73;;;;;;;;;;5052692;28;20419;-65
2023/03/14 06:50:29;;;;;;;0.43;0.43;;;;;;;;;;5034595;28;20481;-65
2023/03/14 06:52:55;;;;;;;2.10;0.60;;;;;;;;;;5052800;28;20414;-65
2023/03/14 06:55:21;;;;;;;0.97;0.93;;;;;;;;;;5034857;28;20422;-65
2023/03/14 06:57:47;;;;;;;0.60;0.53;;;;;;;;;;5034671;28;20484;-65
2023/03/14 07:00:14;;;;;;;0.50;0.50;;;;;;;;;;5052639;28;20534;-65
2023/03/14 07:02:40;;;;;;;2.67;0.70;;;;;;;;;;5052730;28;20415;-65
2023/03/14 07:05:06;;;;;;;0.67;0.60;;;;;;;;;;5052606;28;20470;-64
2023/03/14 07:07:32;;;;;;;0.50;0.50;;;;;;;;;;5052706;28;20481;-65
2023/03/14 07:09:58;;;;;;;0.77;0.50;;;;;;;;;;5052689;28;20868;-66
2023/03/14 07:12:24;;;;;;;3.80;0.60;;;;;;;;;;5052576;28;20399;-65
2023/03/14 07:14:50;;;;;;;0.50;0.50;;;;;;;;;;5052556;28;20860;-65
2023/03/14 07:17:16;;;;;;;1.33;0.70;;;;;;;;;;5052379;28;20444;-65
2023/03/14 07:19:42;;;;;;;1.23;0.60;;;;;;;;;;5052671;28;20396;-65
2023/03/14 07:22:08;;;;;;;0.63;0.63;;;;;;;;;;5052394;28;20418;-64
2023/03/14 07:24:34;;;;;;;1.37;0.50;;;;;;;;;;5052443;28;20418;-64
2023/03/14 07:27:00;;;;;;;3.90;0.67;;;;;;;;;;5052253;28;20913;-64
2023/03/14 07:29:26;;;;;;;0.63;0.63;;;;;;;;;;5052323;28;20528;-65
2023/03/14 07:31:52;;;;;;;0.50;0.50;;;;;;;;;;5052031;28;20439;-65
2023/03/14 07:34:19;;;;;;;0.60;0.53;;;;;;;;;;5052281;28;20516;-64
2023/03/14 07:36:45;;;;;;;1.23;0.50;;;;;;;;;;5052407;28;20441;-66
2023/03/14 07:39:11;;;;;;;0.70;0.70;;;;;;;;;;5052208;28;20506;-65
2023/03/14 07:41:37;;;;;;;0.60;0.60;;;;;;;;;;5052056;28;20418;-65
2023/03/14 07:44:03;;;;;;;1.47;0.73;;;;;;;;;;5052337;28;20434;-65
2023/03/14 07:46:31;;;;;;;1.40;0.50;;;;;;;;;;5052012;28;20438;-65
2023/03/14 07:48:57;;;;;;;3.33;2.70;;;;;;;;;;5052296;28;20843;-65
2023/03/14 07:51:23;;;;;;;0.97;0.87;;;;;;;;;;5051915;28;20439;-65
2023/03/14 07:53:49;;;;;;;2.87;0.60;;;;;;;;;;5034366;28;20850;-65
2023/03/14 07:56:15;;;;;;;1.03;0.90;;;;;;;;;;5052148;28;20481;-65
2023/03/14 07:58:41;;;;;;;1.30;0.60;;;;;;;;;;5052144;28;20419;-65
2023/03/14 08:01:07;;;;;;;0.70;0.67;;;;;;;;;;5052087;28;20442;-65
2023/03/14 08:03:33;;;;;;;1.13;0.40;;;;;;;;;;5034255;28;20426;-65
2023/03/14 08:05:58;;;;;;;1.20;0.70;;;;;;;;;;5052149;28;20939;-65
2023/03/14 08:08:24;;;;;;;1.00;0.90;;;;;;;;;;5052379;28;20472;-65
2023/03/14 08:10:50;;;;;;;2.10;0.80;;;;;;;;;;5051840;28;20481;-65
2023/03/14 08:13:16;;;;;;;0.50;0.50;;;;;;;;;;5052038;28;20408;-65
2023/03/14 08:15:42;;;;;;;0.90;0.90;;;;;;;;;;5051669;28;20898;-64
2023/03/14 08:18:08;;;;;;;0.60;0.60;;;;;;;;;;5051894;28;20411;-65
2023/03/14 08:20:34;;;;;;;1.23;0.50;;;;;;;;;;5051543;28;20451;-63
2023/03/14 08:23:01;;;;;;;2.23;0.97;;;;;;;;;;5051645;28;20947;-64
2023/03/14 08:25:29;;;;;;;1.37;0.80;;;;;;;;;;5051773;28;20407;-64
2023/03/14 08:27:56;;;;;;;0.60;0.60;;;;;;;;;;5051957;28;20435;-63
2023/03/14 08:30:22;;;;;;;0.77;0.60;;;;;;;;;;5051197;28;20947;-63
2023/03/14 08:32:48;;;;;;;1.70;0.63;;;;;;;;;;5051661;28;20961;-63
2023/03/14 08:35:14;;;;;;;1.70;0.73;;;;;;;;;;5051514;28;20407;-64
2023/03/14 08:37:41;;;;;;;1.10;1.10;;;;;;;;;;5051689;28;20453;-64
2023/03/14 08:40:08;;;;;;;1.00;0.80;;;;;;;;;;5053569;28;20418;-63
2023/03/14 08:42:34;;;;;;;0.80;0.60;;;;;;;;;;5037154;28;20948;-62
2023/03/14 08:45:03;;;;;;;2.20;0.70;;;;;;;;;;5055021;28;20437;-62
2023/03/14 08:47:29;;;;;;;1.17;0.60;;;;;;;;;;5054640;28;20944;-63
2023/03/14 08:49:55;;;;;;;0.67;0.57;;;;;;;;;;5054821;28;20454;-64
2023/03/14 08:52:21;;;;;;;1.77;0.40;;;;;;;;;;5054784;28;20786;-63
2023/03/14 08:54:47;;;;;;;0.50;0.50;;;;;;;;;;5054661;28;20438;-65
2023/03/14 08:57:13;;;;;;;0.50;0.50;;;;;;;;;;5054834;28;20431;-66
2023/03/14 08:59:39;;;;;;;0.43;0.43;;;;;;;;;;5055050;28;20490;-68
2023/03/14 09:02:05;;;;;;;0.70;0.70;;;;;;;;;;5054523;28;20434;-69
2023/03/14 09:04:32;;;;;;;1.50;0.50;;;;;;;;;;5054756;28;20403;-65
2023/03/14 09:07:01;;;;;;;0.50;0.50;;;;;;;;;;5054707;28;20446;-66
2023/03/14 09:09:27;;;;;;;1.10;0.70;;;;;;;;;;5054730;28;20459;-66
2023/03/14 09:11:55;;;;;;;0.40;0.40;;;;;;;;;;5054419;28;20431;-68
2023/03/14 09:14:21;;;;;;;0.40;0.40;;;;;;;;;;5054752;28;20411;-65
2023/03/14 09:16:47;;;;;;;0.40;0.40;;;;;;;;;;5054188;28;20438;-65
2023/03/14 09:19:13;;;;;;;0.40;0.30;;;;;;;;;;5054653;28;20399;-66
2023/03/14 09:21:39;;;;;;;0.40;0.40;;;;;;;;;;5054535;28;20442;-65
2023/03/14 09:24:06;;;;;;;1.17;0.30;;;;;;;;;;5054697;28;20494;-66
2023/03/14 09:26:32;;;;;;;0.50;0.50;;;;;;;;;;5054349;28;20925;-65
2023/03/14 09:28:58;;;;;;;0.40;0.40;;;;;;;;;;5054277;28;20502;-65
2023/03/14 09:31:24;;;;;;;0.40;0.30;;;;;;;;;;5054032;28;20469;-65
2023/03/14 09:33:50;;;;;;;1.00;0.50;;;;;;;;;;5054654;28;20419;-66
2023/03/14 09:36:16;;;;;;;0.50;0.30;;;;;;;;;;5054275;28;20407;-67
2023/03/14 09:38:42;;;;;;;0.40;0.33;;;;;;;;;;5053706;28;20893;-67
2023/03/14 09:41:25;;;;;;;0.63;0.63;;;;;;;;;;5053564;28;20407;-66
2023/03/14 09:43:56;;;;;;;0.40;0.40;;;;;;;;;;5054045;28;20466;-66
2023/03/14 09:46:25;;;;;;;0.60;0.40;;;;;;;;;;5053869;28;20438;-65
2023/03/14 09:48:51;;;;;;;0.40;0.40;;;;;;;;;;5053539;28;20722;-66
2023/03/14 09:51:18;;;;;;;0.40;0.40;;;;;;;;;;5054148;28;20505;-66
2023/03/14 09:53:46;;;;;;;0.40;0.40;;;;;;;;;;5053506;28;20410;-66
2023/03/14 09:56:32;;;;;;;0.50;0.30;;;;;;;;;;5035386;28;20426;-64
2023/03/14 09:59:03;;;;;;;0.40;0.40;;;;;;;;;;5053365;28;20478;-66
2023/03/14 10:01:30;;;;;;;0.40;0.40;;;;;;;;;;5053778;28;20407;-66
2023/03/14 10:03:57;;;;;;;0.47;0.40;;;;;;;;;;5052769;28;20411;-66
2023/03/14 10:06:27;;;;;;;0.50;0.50;;;;;;;;;;5053711;28;20528;-66
2023/03/14 10:08:54;;;;;;;0.30;0.30;;;;;;;;;;5052955;28;20407;-64
2023/03/14 10:11:20;;;;;;;3.70;0.40;;;;;;;;;;5053375;28;20492;-65
2023/03/14 10:14:03;;;;;;;0.40;0.40;;;;;;;;;;5053108;28;20465;-66
2023/03/14 10:16:31;;;;;;;0.60;0.60;;;;;;;;;;5053730;28;20494;-65
2023/03/14 10:19:02;;;;;;;0.40;0.40;;;;;;;;;;5053636;28;20415;-68
2023/03/14 10:21:33;;;;;;;0.40;0.40;;;;;;;;;;5053210;28;20411;-65
2023/03/14 10:24:31;;;;;;;0.40;0.40;;;;;;;;;;5053671;28;20773;-65
2023/03/14 10:27:02;;;;;;;0.30;0.30;;;;;;;;;;4998726;28;20431;-69
2023/03/14 10:29:31;;;;;;;0.33;0.30;;;;;;;;;;5053224;28;20454;-64
2023/03/14 10:32:07;;;;;;;0.50;0.40;;;;;;;;;;5052970;28;20419;-63
2023/03/14 10:34:33;;;;;;;0.40;0.40;;;;;;;;;;5053208;28;20387;-64
2023/03/14 10:37:05;;;;;;;0.40;0.40;;;;;;;;;;5052327;28;20482;-64
2023/03/14 10:39:38;;;;;;;0.40;0.40;;;;;;;;;;5052812;28;20417;-64
2023/03/14 10:42:07;;;;;;;1.53;0.40;;;;;;;;;;5052683;28;20509;-64
2023/03/14 10:44:34;;;;;;;0.40;0.40;;;;;;;;;;5053128;28;20426;-63
2023/03/14 10:47:01;;;;;;;0.30;0.30;;;;;;;;;;5052667;28;20426;-64
2023/03/14 10:49:33;;;;;;;0.50;0.50;;;;;;;;;;5052987;28;20541;-63
2023/03/14 10:52:25;;;;;;;0.40;0.40;;;;;;;;;;5052796;28;20948;-63
2023/03/14 10:54:57;;;;;;;0.40;0.30;;;;;;;;;;5025657;28;20427;-64
2023/03/14 10:57:23;;;;;;;0.40;0.40;;;;;;;;;;5052927;28;20431;-64
2023/03/14 10:59:49;;;;;;;0.30;0.30;;;;;;;;;;5052465;28;20458;-63
2023/03/14 11:02:21;;;;;;;0.37;0.37;;;;;;;;;;5052218;28;20442;-63
2023/03/14 11:05:02;;;;;;;0.40;0.40;;;;;;;;;;5052597;28;20411;-64
2023/03/14 11:07:30;;;;;;;0.83;0.40;;;;;;;;;;5052655;28;20450;-63
2023/03/14 11:10:01;;;;;;;0.50;0.40;;;;;;;;;;5052294;28;20484;-62
2023/03/14 11:12:30;;;;;;;0.40;0.40;;;;;;;;;;5052606;28;20441;-63
2023/03/14 11:14:59;;;;;;;1.53;0.60;;;;;;;;;;5052496;28;20501;-64
2023/03/14 11:17:35;;;;;;;5.80;0.50;;;;;;;;;;5052250;28;20414;-63
2023/03/14 11:20:22;;;;;;;0.40;0.40;;;;;;;;;;5052583;28;20467;-64
2023/03/14 11:22:57;;;;;;;0.40;0.40;;;;;;;;;;5052646;28;20419;-63
2023/03/14 11:25:32;;;;;;;0.40;0.30;;;;;;;;;;5052393;28;20438;-63
2023/03/14 11:28:10;;;;;;;0.37;0.33;;;;;;;;;;5052118;28;20434;-61
2023/03/14 11:30:42;;;;;;;0.67;0.67;;;;;;;;;;5052310;28;20498;-62
2023/03/14 11:33:15;;;;;;;0.43;0.40;;;;;;;;;;5051994;28;20431;-62
2023/03/14 11:35:47;;;;;;;0.30;0.30;;;;;;;;;;5039347;28;20422;-63
2023/03/14 11:38:16;;;;;;;0.40;0.33;;;;;;;;;;5012224;28;20436;-62
2023/03/14 11:40:45;;;;;;;2.10;0.30;;;;;;;;;;5013118;28;20871;-65
2023/03/14 11:43:17;;;;;;;0.40;0.40;;;;;;;;;;5024632;28;20459;-64
2023/03/14 11:45:44;;;;;;;0.40;0.40;;;;;;;;;;5032272;28;20443;-63
2023/03/14 11:48:09;;;;;;;1.03;0.40;;;;;;;;;;5032052;28;20439;-63
2023/03/14 11:50:37;;;;;;;1.83;0.40;;;;;;;;;;5032000;28;20510;-63
2023/03/14 11:53:09;;;;;;;0.40;0.40;;;;;;;;;;5032168;28;20981;-62
2023/03/14 11:55:36;;;;;;;0.40;0.40;;;;;;;;;;5050520;28;20505;-62
2023/03/14 11:58:20;;;;;;;1.17;0.43;;;;;;;;;;5051506;28;20443;-62
2023/03/14 12:00:48;;;;;;;0.40;0.40;;;;;;;;;;5033150;28;20432;-61
2023/03/14 12:03:17;;;;;;;1.07;0.47;;;;;;;;;;5031655;28;20443;-61
2023/03/14 12:05:47;;;;;;;1.03;0.47;;;;;;;;;;5031939;28;20997;-62
2023/03/14 12:08:13;;;;;;;0.53;0.53;;;;;;;;;;5032062;28;20438;-62
2023/03/14 12:10:42;;;;;;;0.50;0.50;;;;;;;;;;5031563;28;20542;-63
2023/03/14 12:13:10;;;;;;;1.00;0.63;;;;;;;;;;5031704;28;20946;-63
2023/03/14 12:15:39;;;;;;;0.87;0.60;;;;;;;;;;5034727;28;20415;-63
2023/03/14 12:18:17;;;;;;;1.13;0.50;;;;;;;;;;5042405;28;20948;-62
2023/03/14 12:20:51;;;;;;;1.03;0.60;;;;;;;;;;5055805;28;20946;-63
2023/03/14 12:23:17;;;;;;;0.37;0.37;;;;;;;;;;5055807;28;20392;-63
2023/03/14 12:25:43;;;;;;;1.47;0.40;;;;;;;;;;5055074;28;20442;-63
2023/03/14 12:28:15;;;;;;;1.33;0.57;;;;;;;;;;5055045;28;20415;-64
2023/03/14 12:30:41;;;;;;;0.80;0.50;;;;;;;;;;5037257;28;20555;-63
2023/03/14 12:33:10;;;;;;;0.50;0.50;;;;;;;;;;5055349;28;20423;-64
2023/03/14 12:35:41;;;;;;;0.70;0.60;;;;;;;;;;5051425;28;20881;-63
2023/03/14 12:38:10;;;;;;;0.40;0.40;;;;;;;;;;5037357;28;20418;-63
2023/03/14 12:40:39;;;;;;;0.50;0.50;;;;;;;;;;5055032;28;20525;-63
2023/03/14 12:43:21;;;;;;;0.77;0.50;;;;;;;;;;5055002;28;20477;-63
2023/03/14 12:46:07;;;;;;;0.43;0.43;;;;;;;;;;5054523;28;20944;-64
2023/03/14 12:48:33;;;;;;;0.40;0.40;;;;;;;;;;5054613;28;20803;-63
2023/03/14 12:51:12;;;;;;;1.53;1.40;;;;;;;;;;5046288;28;20459;-64
2023/03/14 12:53:48;;;;;;;0.50;0.50;;;;;;;;;;5035168;28;20405;-63
2023/03/14 12:56:25;;;;;;;0.50;0.50;;;;;;;;;;5017549;28;20416;-62
2023/03/14 12:58:59;;;;;;;0.60;0.57;;;;;;;;;;5034620;28;20871;-62
2023/03/14 13:01:25;;;;;;;0.50;0.50;;;;;;;;;;5034918;28;20764;-61
2023/03/14 13:03:53;;;;;;;0.40;0.40;;;;;;;;;;5035088;28;20434;-62
2023/03/14 13:06:53;;;;;;;0.70;0.50;;;;;;;;;;5034449;28;20430;-61
2023/03/14 13:09:39;;;;;;;0.70;0.70;;;;;;;;;;4981690;28;20502;-62
2023/03/14 13:12:13;;;;;;;0.60;0.47;;;;;;;;;;5017562;28;20415;-63
2023/03/14 13:14:49;;;;;;;0.97;0.50;;;;;;;;;;5034598;28;20830;-62
2023/03/14 13:17:16;;;;;;;6.50;0.60;;;;;;;;;;5034378;28;20466;-66
2023/03/14 13:19:42;;;;;;;0.63;0.63;;;;;;;;;;5034735;28;20485;-62
2023/03/14 13:22:25;;;;;;;2.03;0.53;;;;;;;;;;5034026;28;20758;-62
2023/03/14 13:24:51;;;;;;;0.50;0.50;;;;;;;;;;5033770;28;20442;-62
2023/03/14 13:27:20;;;;;;;1.53;0.60;;;;;;;;;;5033900;28;20435;-62
2023/03/14 13:29:48;;;;;;;0.73;0.73;;;;;;;;;;5033940;28;20891;-63
2023/03/14 13:32:20;;;;;;;0.60;0.60;;;;;;;;;;5034349;28;20405;-63
2023/03/14 13:34:48;;;;;;;1.07;0.60;;;;;;;;;;5034190;28;20408;-63
2023/03/14 13:37:17;;;;;;;0.73;0.73;;;;;;;;;;5034706;28;20400;-63
2023/03/14 13:39:44;;;;;;;2.97;0.80;;;;;;;;;;5033989;28;20849;-63
2023/03/14 13:42:15;;;;;;;1.03;0.80;;;;;;;;;;5033920;28;20439;-63
2023/03/14 13:44:41;;;;;;;0.60;0.60;;;;;;;;;;5033909;28;20488;-63
2023/03/14 13:47:14;;;;;;;2.20;0.67;;;;;;;;;;5034154;28;20420;-64
2023/03/14 13:49:40;;;;;;;0.80;0.60;;;;;;;;;;5033897;28;20460;-63
2023/03/14 13:52:22;;;;;;;0.60;0.47;;;;;;;;;;5033724;28;20432;-62
2023/03/14 13:54:48;;;;;;;0.70;0.70;;;;;;;;;;5016036;28;20412;-63
2023/03/14 13:57:14;;;;;;;1.60;0.60;;;;;;;;;;5033862;28;20426;-63
2023/03/14 13:59:40;;;;;;;1.37;0.60;;;;;;;;;;5033584;28;20887;-63
2023/03/14 14:02:12;;;;;;;2.60;0.70;;;;;;;;;;5033860;28;20411;-62
2023/03/14 14:04:41;;;;;;;1.37;0.50;;;;;;;;;;5033920;28;20439;-63
2023/03/14 14:07:11;;;;;;;1.43;0.67;;;;;;;;;;5033613;28;20439;-62
2023/03/14 14:09:45;;;;;;;1.17;0.80;;;;;;;;;;5033714;28;20498;-62
2023/03/14 14:12:18;;;;;;;1.63;1.00;;;;;;;;;;5033643;28;20430;-63
2023/03/14 14:14:56;;;;;;;0.60;0.60;;;;;;;;;;5033716;28;20428;-63
2023/03/14 14:17:25;;;;;;;0.70;0.70;;;;;;;;;;5033846;28;20441;-63
2023/03/14 14:19:56;;;;;;;1.23;1.07;;;;;;;;;;5033701;28;20435;-64
2023/03/14 14:22:22;;;;;;;1.33;0.60;;;;;;;;;;5033684;28;20436;-65
2023/03/14 14:24:51;;;;;;;4.50;1.30;;;;;;;;;;5033503;28;20781;-62
2023/03/14 14:27:20;;;;;;;0.97;0.70;;;;;;;;;;5015654;28;20795;-62
2023/03/14 14:29:57;;;;;;;1.43;0.90;;;;;;;;;;5033807;28;20444;-63
2023/03/14 14:32:24;;;;;;;1.63;0.90;;;;;;;;;;5034040;28;20562;-63
2023/03/14 14:34:58;;;;;;;5.33;0.80;;;;;;;;;;5033794;28;20408;-65
2023/03/14 14:37:30;;;;;;;5.70;1.00;;;;;;;;;;5032755;28;20424;-64
2023/03/14 14:40:00;;;;;;;0.90;0.90;;;;;;;;;;5033396;28;20773;-63
2023/03/14 14:42:29;;;;;;;3.13;1.03;;;;;;;;;;5033533;28;20431;-63
2023/03/14 14:44:56;;;;;;;4.13;0.70;;;;;;;;;;5033248;28;20434;-63
2023/03/14 14:47:23;;;;;;;1.50;1.00;;;;;;;;;;5032956;28;20868;-64
2023/03/14 14:49:51;;;;;;;4.63;1.40;;;;;;;;;;5032990;28;20451;-63